Portada
METAR-TAF:

METAR-TAF

Aeroports :

Zhengzhou, Xina

latitud: 34-43N, longitud: 113-39E, altitud: 111 m

Observació

L'informe es va fer fa 35 minuts, a les 02:00 UTC
Vent 6 kt del Sud, variant entre Sud-Est i Oest/Sud-Oest
Temperatura 24°C
Humitat 54%
Pressió 1023 hPa
Visibilitat 10 km o més
sense núvols per sota de 1500 mi sense presència de cumulonimbus.

METAR: ZHCC 230200Z 18003MPS 130V250 CAVOK 24/14 Q1023 NOSIG

Hora: 10:35 (02:35 UTC)

Pronòstic

L'informe es va fer fa 7 hores i 22 minuts, a les 19:13 UTC
Pronòstic vàlid del 23 a les 00 UTC al 23 a les 24 UTC
Vent 6 kt del Oest
Visibilitat: 4000 m
boirina

TAF: ZHCC 221913Z 2300/2324 27003MPS 4000 BR NSC TX28/2307Z TN17/2322Z

Observacions i pronòstics meteorològics de més de 4000 aeroports (METAR i TAF).

Les estacions disponibles són els punts grocs i vermells al mapa.

Posi el ratolí al punt desitjat per veure el nom de l'estació.

Feu clic per veure les observacions i els pronòstics meteorològics.

Per canviar el mapa: feu clic els botons verds amb una creu de color negre per apropar; al botó verd amb un guió per allunyar la imatge; o en les fletxes verdes per a mapes adjacents.


METAR-TAF: